Time;durP1;ratioP1;P1;durP2;ratioP2;P2;SDS_P1;SDS_P2;PMS_P1;PMS_P2;Temp;Humidity;BMP_temperature;BMP_pressure;BME280_temperature;BME280_humidity;BME280_pressure;Samples;Min_cycle;Max_cycle;Signal;HPM_P1;HPM_P2
2022/10/20 00:00:25;;;;;;;7.05;4.03;;;;;;;13.43;nan;-24191.94;5093145;28;20265;-76
2022/10/20 00:02:51;;;;;;;7.68;4.60;;;;;;;13.33;nan;-24189.00;5092864;28;20181;-76
2022/10/20 00:05:16;;;;;;;7.32;4.45;;;;;;;13.51;nan;-24194.06;5074484;28;20181;-76
2022/10/20 00:07:42;;;;;;;7.63;4.70;;;;;;;13.27;nan;-24187.47;5092864;28;20162;-77
2022/10/20 00:10:07;;;;;;;7.05;4.88;;;;;;;13.06;nan;-24181.69;5093330;28;20468;-76
2022/10/20 00:12:33;;;;;;;7.38;4.50;;;;;;;12.75;nan;-24173.13;5074367;28;20268;-77
2022/10/20 00:14:58;;;;;;;7.78;4.70;;;;;;;13.26;nan;-24187.19;5074533;28;20276;-76
2022/10/20 00:17:24;;;;;;;14.95;5.57;;;;;;;13.45;nan;-24192.38;5093128;28;20184;-78
2022/10/20 00:19:49;;;;;;;7.70;4.50;;;;;;;13.34;nan;-24189.28;5091405;28;20178;-76
2022/10/20 00:22:15;;;;;;;8.57;4.88;;;;;;;13.80;nan;-24202.19;5074126;28;20181;-78
2022/10/20 00:24:41;;;;;;;7.68;5.05;;;;;;;13.92;nan;-24205.44;5092948;28;20232;-77
2022/10/20 00:27:06;;;;;;;8.45;4.72;;;;;;;14.19;nan;-24212.88;5092512;28;20177;-77
2022/10/20 00:29:32;;;;;;;9.73;4.82;;;;;;;14.15;nan;-24212.03;5092561;28;20181;-76
2022/10/20 00:31:57;;;;;;;8.48;5.30;;;;;;;14.04;nan;-24208.94;5074279;28;20530;-76
2022/10/20 00:34:23;;;;;;;8.70;5.35;;;;;;;14.09;nan;-24210.34;5091772;28;20197;-77
2022/10/20 00:36:48;;;;;;;7.45;4.72;;;;;;;14.56;nan;-24223.25;5093054;28;20170;-77
2022/10/20 00:39:13;;;;;;;9.27;5.50;;;;;;;14.80;nan;-24229.97;5092505;28;20203;-78
2022/10/20 00:41:39;;;;;;;12.93;5.45;;;;;;;14.81;nan;-24230.25;5092710;28;20256;-77
2022/10/20 00:44:42;;;;;;;10.30;5.93;;;;;;;15.08;nan;-24237.69;5092510;28;20204;-76
2022/10/20 00:47:13;;;;;;;10.45;5.53;;;;;;;15.15;nan;-24239.50;5092039;28;20177;-76
2022/10/20 00:49:39;;;;;;;11.63;5.28;;;;;;;15.25;nan;-24242.31;5092080;28;20255;-78
2022/10/20 00:52:05;;;;;;;9.90;5.07;;;;;;;15.43;nan;-24247.50;5091828;28;20177;-76
2022/10/20 00:54:31;;;;;;;9.20;5.28;;;;;;;15.46;nan;-24248.19;5073687;28;20193;-76
2022/10/20 00:56:58;;;;;;;9.32;4.85;;;;;;;15.33;nan;-24244.56;5092272;28;20177;-76
2022/10/20 00:59:28;;;;;;;8.93;5.43;;;;;;;15.26;nan;-24242.59;5073497;28;20242;-76
2022/10/20 01:01:55;;;;;;;11.50;5.82;;;;;;;15.76;nan;-24256.59;5092552;28;20666;-77
2022/10/20 01:04:21;;;;;;;7.53;5.13;;;;;;;15.83;nan;-24258.56;5091520;28;20177;-76
2022/10/20 01:06:47;;;;;;;9.05;5.30;;;;;;;15.80;nan;-24257.56;5073571;28;20184;-77
2022/10/20 01:09:12;;;;;;;8.27;5.30;;;;;;;15.47;nan;-24248.63;5092143;28;20169;-76
2022/10/20 01:11:52;;;;;;;10.35;5.97;;;;;;;15.78;nan;-24257.16;5073570;28;20565;-77
2022/10/20 01:14:23;;;;;;;11.60;5.63;;;;;;;15.91;nan;-24260.78;5091958;28;20275;-78
2022/10/20 01:17:24;;;;;;;9.25;5.95;;;;;;;15.78;nan;-24257.16;5092172;28;20169;-77
2022/10/20 01:20:34;;;;;;;10.65;6.40;;;;;;;15.98;nan;-24262.47;5073778;28;20165;-78
2022/10/20 01:23:21;;;;;;;9.07;5.47;;;;;;;16.04;nan;-24264.16;5063689;28;20609;-77
2022/10/20 01:26:08;;;;;;;9.82;5.93;;;;;;;16.12;nan;-24266.38;5070955;28;20174;-77
2022/10/20 01:28:45;;;;;;;11.40;6.45;;;;;;;15.71;nan;-24255.06;5069564;28;20227;-77
2022/10/20 01:31:39;;;;;;;10.27;6.47;;;;;;;15.96;nan;-24262.06;5072898;28;20252;-76
2022/10/20 01:34:27;;;;;;;11.15;6.50;;;;;;;16.04;nan;-24264.16;5075542;28;20200;-76
2022/10/20 01:37:00;;;;;;;11.30;5.68;;;;;;;15.97;nan;-24262.31;5075104;28;20184;-77
2022/10/20 01:39:41;;;;;;;11.43;6.45;;;;;;;15.99;nan;-24262.75;5075328;28;20162;-77
2022/10/20 01:42:13;;;;;;;7.85;5.10;;;;;;;15.96;nan;-24261.91;5075073;28;20174;-76
2022/10/20 01:44:40;;;;;;;11.35;5.72;;;;;;;15.99;nan;-24262.88;5073834;28;20174;-77
2022/10/20 01:47:08;;;;;;;11.45;6.25;;;;;;;16.02;nan;-24263.72;5073368;28;20182;-76
2022/10/20 01:49:34;;;;;;;13.80;6.50;;;;;;;15.97;nan;-24262.19;5074948;28;20637;-76
2022/10/20 01:52:00;;;;;;;11.18;6.22;;;;;;;15.60;nan;-24251.97;5074920;28;20180;-77
2022/10/20 01:54:27;;;;;;;11.90;7.03;;;;;;;15.62;nan;-24252.53;5074644;28;20201;-77
2022/10/20 01:57:11;;;;;;;11.35;6.65;;;;;;;15.78;nan;-24257.00;5075422;28;20174;-78
2022/10/20 01:59:49;;;;;;;10.85;6.35;;;;;;;15.71;nan;-24255.19;5075291;28;20173;-77
2022/10/20 02:02:54;;;;;;;15.30;6.60;;;;;;;15.74;nan;-24256.03;5075395;28;20177;-78
2022/10/20 02:05:38;;;;;;;10.20;6.65;;;;;;;15.67;nan;-24254.06;5073770;28;20188;-78
2022/10/20 02:08:29;;;;;;;12.68;6.47;;;;;;;15.68;nan;-24254.22;5074851;28;20266;-76
2022/10/20 02:10:58;;;;;;;15.18;7.50;;;;;;;15.36;nan;-24245.38;5074935;28;20616;-78
2022/10/20 02:13:25;;;;;;;12.85;7.43;;;;;;;15.20;nan;-24240.91;5074939;28;20162;-76
2022/10/20 02:15:54;;;;;;;14.55;6.65;;;;;;;15.69;nan;-24254.50;5074689;28;20197;-77
2022/10/20 02:18:26;;;;;;;12.98;7.18;;;;;;;15.64;nan;-24253.22;5074123;28;20170;-77
2022/10/20 02:20:55;;;;;;;12.02;6.80;;;;;;;15.29;nan;-24243.56;5074725;28;20170;-76
2022/10/20 02:23:21;;;;;;;13.07;7.50;;;;;;;15.70;nan;-24254.78;5081537;28;20278;-76
2022/10/20 02:25:50;;;;;;;13.50;6.95;;;;;;;15.66;nan;-24253.66;5094715;28;20181;-76
2022/10/20 02:28:16;;;;;;;12.50;6.90;;;;;;;15.45;nan;-24247.91;5076425;28;20703;-77
2022/10/20 02:30:43;;;;;;;13.30;7.47;;;;;;;15.37;nan;-24245.81;5094771;28;20180;-77
2022/10/20 02:33:10;;;;;;;10.02;6.72;;;;;;;15.18;nan;-24240.50;5095243;28;20230;-77
2022/10/20 02:35:35;;;;;;;15.68;7.60;;;;;;;15.21;nan;-24241.19;5094471;28;20690;-76
2022/10/20 02:38:01;;;;;;;12.70;7.00;;;;;;;15.20;nan;-24240.91;5094876;28;20161;-76
2022/10/20 02:40:27;;;;;;;14.57;6.55;;;;;;;15.23;nan;-24241.88;5095037;28;20177;-76
2022/10/20 02:42:52;;;;;;;10.40;6.70;;;;;;;14.83;nan;-24230.81;5093621;28;20176;-76
2022/10/20 02:45:18;;;;;;;10.00;5.95;;;;;;;14.68;nan;-24226.63;5095115;28;20612;-76
2022/10/20 02:47:44;;;;;;;14.05;7.43;;;;;;;14.90;nan;-24232.63;5094564;28;20173;-77
2022/10/20 02:50:10;;;;;;;11.43;6.45;;;;;;;14.37;nan;-24218.06;5094839;28;20261;-77
2022/10/20 02:52:36;;;;;;;14.30;6.07;;;;;;;14.85;nan;-24231.25;5094555;28;20298;-76
2022/10/20 02:55:02;;;;;;;9.55;6.03;;;;;;;14.81;nan;-24230.25;5094419;28;20658;-76
2022/10/20 02:57:28;;;;;;;13.30;7.32;;;;;;;14.76;nan;-24228.84;5075957;28;20181;-76
2022/10/20 02:59:53;;;;;;;14.88;7.28;;;;;;;14.92;nan;-24233.34;5093953;28;20212;-76
2022/10/20 03:02:18;;;;;;;10.68;6.47;;;;;;;14.85;nan;-24231.38;5075792;28;20184;-76
2022/10/20 03:04:44;;;;;;;13.00;7.13;;;;;;;14.96;nan;-24234.47;5093700;28;20222;-76
2022/10/20 03:07:10;;;;;;;12.25;6.80;;;;;;;14.89;nan;-24232.38;5075836;28;20237;-76
2022/10/20 03:09:36;;;;;;;14.30;7.07;;;;;;;14.72;nan;-24227.75;5094477;28;20177;-77
2022/10/20 03:12:02;;;;;;;12.85;7.38;;;;;;;14.85;nan;-24231.38;5094211;28;20172;-77
2022/10/20 03:14:27;;;;;;;10.45;6.50;;;;;;;14.87;nan;-24231.94;5075612;28;20549;-76
2022/10/20 03:16:53;;;;;;;11.40;6.63;;;;;;;14.69;nan;-24226.75;5075725;28;20255;-76
2022/10/20 03:19:18;;;;;;;14.10;7.55;;;;;;;14.94;nan;-24233.91;5093976;28;20546;-77
2022/10/20 03:21:45;;;;;;;12.20;6.57;;;;;;;14.64;nan;-24225.34;5092857;28;20609;-76
2022/10/20 03:24:10;;;;;;;12.05;6.93;;;;;;;14.59;nan;-24224.22;5078236;28;20232;-77
2022/10/20 03:26:35;;;;;;;11.95;6.75;;;;;;;14.92;nan;-24233.22;5084722;28;20178;-76
2022/10/20 03:29:01;;;;;;;15.52;7.78;;;;;;;15.09;nan;-24237.97;5060429;28;20185;-77
2022/10/20 03:31:26;;;;;;;12.70;7.47;;;;;;;15.10;nan;-24238.25;5060395;28;20189;-77
2022/10/20 03:33:52;;;;;;;16.10;7.78;;;;;;;15.15;nan;-24239.66;5083403;28;20182;-77
2022/10/20 03:36:18;;;;;;;13.98;7.18;;;;;;;15.10;nan;-24238.09;5079029;28;20192;-77
2022/10/20 03:38:44;;;;;;;14.63;7.30;;;;;;;14.96;nan;-24234.47;5065924;28;20258;-76
2022/10/20 03:41:10;;;;;;;15.82;7.20;;;;;;;15.06;nan;-24237.00;5083449;28;20185;-76
2022/10/20 03:43:37;;;;;;;13.05;7.60;;;;;;;15.10;nan;-24238.09;5079110;28;20575;-76
2022/10/20 03:46:06;;;;;;;12.70;7.80;;;;;;;14.99;nan;-24235.31;5079195;28;20173;-77
2022/10/20 03:48:32;;;;;;;12.27;6.68;;;;;;;14.72;nan;-24227.75;5083107;28;20782;-77
2022/10/20 03:50:59;;;;;;;11.68;7.35;;;;;;;15.05;nan;-24236.84;5078743;28;20173;-76
2022/10/20 03:53:24;;;;;;;11.60;6.63;;;;;;;14.94;nan;-24233.75;5077376;28;20272;-76
2022/10/20 03:55:50;;;;;;;11.90;6.50;;;;;;;15.03;nan;-24236.28;5078034;28;20316;-77
2022/10/20 03:58:15;;;;;;;14.73;6.93;;;;;;;15.12;nan;-24238.66;5079078;28;20527;-77
2022/10/20 04:00:41;;;;;;;14.63;6.50;;;;;;;15.04;nan;-24236.56;5078164;28;20372;-77
2022/10/20 04:03:06;;;;;;;10.07;5.88;;;;;;;14.59;nan;-24224.09;5066048;28;20636;-79
2022/10/20 04:05:32;;;;;;;13.38;7.47;;;;;;;14.85;nan;-24231.25;5078787;28;20220;-78
2022/10/20 04:07:57;;;;;;;14.45;6.53;;;;;;;14.96;nan;-24234.47;5077967;28;20174;-78
2022/10/20 04:10:23;;;;;;;13.90;7.15;;;;;;;14.90;nan;-24232.78;5077990;28;20263;-80
2022/10/20 04:12:48;;;;;;;13.90;7.40;;;;;;;14.65;nan;-24225.63;5082366;28;20268;-77
2022/10/20 04:15:14;;;;;;;10.65;6.45;;;;;;;14.50;nan;-24221.72;5078641;28;20660;-79
2022/10/20 04:17:39;;;;;;;11.82;6.68;;;;;;;14.69;nan;-24226.91;5077681;28;20664;-78
2022/10/20 04:20:05;;;;;;;12.23;6.55;;;;;;;14.50;nan;-24221.72;5095851;28;20180;-77
2022/10/20 04:22:31;;;;;;;10.88;6.95;;;;;;;14.37;nan;-24218.06;5083910;28;20291;-77
2022/10/20 04:24:56;;;;;;;13.07;6.22;;;;;;;14.34;nan;-24217.22;5080912;28;20178;-76
2022/10/20 04:27:22;;;;;;;13.10;6.53;;;;;;;14.73;nan;-24228.03;5098588;28;20662;-76
2022/10/20 04:29:47;;;;;;;12.90;6.13;;;;;;;14.30;nan;-24215.94;5074730;28;20276;-77
2022/10/20 04:32:13;;;;;;;12.30;6.78;;;;;;;14.67;nan;-24226.19;5072151;28;20174;-76
2022/10/20 04:34:38;;;;;;;10.65;6.55;;;;;;;14.56;nan;-24223.41;5074178;28;20255;-80
2022/10/20 04:37:04;;;;;;;12.13;6.22;;;;;;;14.56;nan;-24223.41;5092187;28;20223;-77
2022/10/20 04:39:29;;;;;;;11.75;7.10;;;;;;;14.28;nan;-24215.41;5092112;28;20177;-77
2022/10/20 04:41:54;;;;;;;12.55;6.68;;;;;;;14.65;nan;-24225.63;5092176;28;20173;-77
2022/10/20 04:44:20;;;;;;;9.85;5.80;;;;;;;14.81;nan;-24230.25;5072194;28;20271;-77
2022/10/20 04:46:45;;;;;;;10.82;6.15;;;;;;;14.80;nan;-24229.84;5095709;28;20627;-77
2022/10/20 04:49:11;;;;;;;9.88;5.80;;;;;;;14.61;nan;-24224.66;5073648;28;20237;-77
2022/10/20 04:51:36;;;;;;;15.80;7.43;;;;;;;14.61;nan;-24224.50;5073541;28;20169;-76
2022/10/20 04:54:02;;;;;;;10.30;6.10;;;;;;;14.75;nan;-24228.56;5091723;28;20180;-76
2022/10/20 04:56:27;;;;;;;8.55;5.57;;;;;;;14.49;nan;-24221.44;5090635;28;20181;-78
2022/10/20 04:58:55;;;;;;;12.80;5.97;;;;;;;14.74;nan;-24228.16;5092001;28;20269;-78
2022/10/20 05:01:24;;;;;;;9.80;5.93;;;;;;;14.78;nan;-24229.28;5073576;28;20173;-83
2022/10/20 05:03:50;;;;;;;11.05;6.47;;;;;;;14.72;nan;-24227.59;5075463;28;20181;-86
2022/10/20 05:06:24;;;;;;;8.30;5.63;;;;;;;14.85;nan;-24231.25;5075863;28;20280;-84
2022/10/20 05:08:53;;;;;;;11.00;5.57;;;;;;;14.16;nan;-24212.16;5075843;28;20172;-80
2022/10/20 05:11:19;;;;;;;9.20;5.63;;;;;;;14.93;nan;-24233.50;5075740;28;20176;-81
2022/10/20 05:13:45;;;;;;;8.15;5.43;;;;;;;14.89;nan;-24232.50;5096235;28;20192;-81
2022/10/20 05:16:11;;;;;;;10.35;6.00;;;;;;;14.91;nan;-24232.94;5091292;28;20197;-80
2022/10/20 05:18:37;;;;;;;12.45;5.78;;;;;;;14.84;nan;-24230.97;5073208;28;20231;-81
2022/10/20 05:21:12;;;;;;;13.00;6.40;;;;;;;14.90;nan;-24232.63;5091784;28;20165;-85
2022/10/20 05:23:38;;;;;;;10.00;5.82;;;;;;;14.58;nan;-24223.94;5091307;28;20259;-76
2022/10/20 05:26:06;;;;;;;10.07;5.03;;;;;;;14.92;nan;-24233.34;5090555;28;20648;-76
2022/10/20 05:28:32;;;;;;;9.13;5.53;;;;;;;14.93;nan;-24233.63;5090551;28;20538;-77
2022/10/20 05:31:02;;;;;;;8.27;5.05;;;;;;;14.72;nan;-24227.75;5091058;28;20172;-78
2022/10/20 05:33:27;;;;;;;9.50;5.60;;;;;;;14.71;nan;-24227.47;5091121;28;20168;-76
2022/10/20 05:35:53;;;;;;;8.43;4.95;;;;;;;15.09;nan;-24237.81;5073259;28;20196;-77
2022/10/20 05:38:18;;;;;;;8.68;5.38;;;;;;;14.99;nan;-24235.16;5072859;28;20485;-77
2022/10/20 05:40:44;;;;;;;8.90;5.43;;;;;;;15.33;nan;-24244.56;5072864;28;20268;-78
2022/10/20 05:43:09;;;;;;;10.50;5.15;;;;;;;15.00;nan;-24235.44;5091533;28;20625;-78
2022/10/20 05:45:34;;;;;;;11.15;6.28;;;;;;;15.24;nan;-24242.16;5073509;28;20557;-78
2022/10/20 05:48:00;;;;;;;12.20;5.07;;;;;;;15.36;nan;-24245.53;5073548;28;20211;-77
2022/10/20 05:50:25;;;;;;;10.95;5.72;;;;;;;15.30;nan;-24243.72;5073348;28;20173;-79
2022/10/20 05:52:51;;;;;;;8.32;5.50;;;;;;;15.20;nan;-24240.91;5091324;28;20262;-78
2022/10/20 05:55:17;;;;;;;7.97;5.47;;;;;;;15.21;nan;-24241.19;5091247;28;20707;-78
2022/10/20 05:57:42;;;;;;;8.57;5.35;;;;;;;15.37;nan;-24245.66;5073270;28;20176;-79
2022/10/20 06:00:08;;;;;;;9.50;5.93;;;;;;;15.43;nan;-24247.34;5073061;28;20173;-79
2022/10/20 06:02:34;;;;;;;8.45;5.18;;;;;;;15.27;nan;-24242.88;5072742;28;20177;-78
2022/10/20 06:04:59;;;;;;;9.57;5.13;;;;;;;15.64;nan;-24253.22;5072971;28;20627;-78
2022/10/20 06:07:24;;;;;;;8.68;4.97;;;;;;;15.59;nan;-24251.84;5072622;28;20699;-78
2022/10/20 06:09:50;;;;;;;8.30;4.95;;;;;;;15.46;nan;-24248.19;5072642;28;20177;-78
2022/10/20 06:12:15;;;;;;;8.60;5.38;;;;;;;15.67;nan;-24253.94;5090823;28;20226;-78
2022/10/20 06:14:41;;;;;;;9.75;4.55;;;;;;;15.40;nan;-24246.50;5074552;28;20225;-77
2022/10/20 06:17:06;;;;;;;9.43;5.00;;;;;;;15.74;nan;-24255.91;5092543;28;20169;-77
2022/10/20 06:19:31;;;;;;;10.05;5.60;;;;;;;15.84;nan;-24258.69;5076411;28;20633;-80
2022/10/20 06:21:57;;;;;;;10.00;5.35;;;;;;;15.87;nan;-24259.66;5095341;28;20330;-78
2022/10/20 06:24:22;;;;;;;11.32;5.45;;;;;;;15.82;nan;-24258.13;5076579;28;20315;-78
2022/10/20 06:26:48;;;;;;;11.18;5.70;;;;;;;15.84;nan;-24258.84;5076944;28;20619;-78
2022/10/20 06:29:16;;;;;;;9.88;5.43;;;;;;;16.00;nan;-24263.03;5076855;28;20201;-79
2022/10/20 06:31:46;;;;;;;9.27;5.22;;;;;;;16.02;nan;-24263.59;5076242;28;20840;-77
2022/10/20 06:34:16;;;;;;;8.15;4.72;;;;;;;16.17;nan;-24267.94;5094605;28;20272;-77
2022/10/20 06:36:41;;;;;;;7.57;4.88;;;;;;;16.19;nan;-24268.47;5094365;28;20166;-78
2022/10/20 06:39:14;;;;;;;10.85;5.40;;;;;;;16.37;nan;-24273.25;5076422;28;20172;-77
2022/10/20 06:41:39;;;;;;;8.63;5.38;;;;;;;16.41;nan;-24274.34;5076281;28;20173;-76
2022/10/20 06:44:06;;;;;;;8.43;4.78;;;;;;;15.93;nan;-24261.22;5075343;28;20707;-81
2022/10/20 06:46:34;;;;;;;8.73;4.70;;;;;;;16.22;nan;-24269.19;5094769;28;20217;-77
2022/10/20 06:49:02;;;;;;;7.72;4.70;;;;;;;16.35;nan;-24272.97;5094420;28;20166;-78
2022/10/20 06:51:28;;;;;;;7.68;4.93;;;;;;;16.24;nan;-24269.75;5076077;28;20205;-77
2022/10/20 06:53:54;;;;;;;7.32;4.45;;;;;;;16.25;nan;-24270.16;5094182;28;20214;-77
2022/10/20 06:56:22;;;;;;;9.85;5.32;;;;;;;16.54;nan;-24278.00;5094989;28;20177;-76
2022/10/20 06:58:49;;;;;;;7.07;4.72;;;;;;;16.51;nan;-24277.28;5094112;28;20244;-77
2022/10/20 07:01:18;;;;;;;8.48;4.57;;;;;;;16.83;nan;-24285.97;5094388;28;20188;-77
2022/10/20 07:03:45;;;;;;;6.63;4.35;;;;;;;16.77;nan;-24284.41;5094217;28;20177;-76
2022/10/20 07:06:14;;;;;;;7.68;4.28;;;;;;;16.99;nan;-24290.44;5076392;28;20629;-77
2022/10/20 07:08:39;;;;;;;7.70;4.50;;;;;;;16.97;nan;-24290.00;5094230;28;20176;-76
2022/10/20 07:11:12;;;;;;;9.48;4.97;;;;;;;17.09;nan;-24293.34;5094413;28;20177;-77
2022/10/20 07:13:38;;;;;;;9.23;5.05;;;;;;;17.13;nan;-24294.47;5076131;28;20528;-75
2022/10/20 07:16:05;;;;;;;7.03;4.40;;;;;;;17.28;nan;-24298.38;5075767;28;20209;-75
2022/10/20 07:18:31;;;;;;;10.63;5.10;;;;;;;17.22;nan;-24297.00;5076460;28;20165;-79
2022/10/20 07:21:02;;;;;;;7.45;4.13;;;;;;;17.20;nan;-24296.28;5094267;28;20761;-79
2022/10/20 07:23:29;;;;;;;10.57;5.55;;;;;;;17.15;nan;-24295.03;5072214;28;20229;-78
2022/10/20 07:26:01;;;;;;;8.55;5.28;;;;;;;17.45;nan;-24303.13;5073706;28;20186;-78
2022/10/20 07:28:27;;;;;;;5.38;4.03;;;;;;;17.30;nan;-24299.09;5071530;28;20185;-79
2022/10/20 07:30:52;;;;;;;8.85;5.10;;;;;;;17.44;nan;-24303.00;5072222;28;20177;-78
2022/10/20 07:33:17;;;;;;;7.45;4.65;;;;;;;17.64;nan;-24308.44;5073825;28;20174;-78
2022/10/20 07:35:43;;;;;;;8.20;4.50;;;;;;;17.80;nan;-24312.91;5072059;28;20197;-76
2022/10/20 07:38:08;;;;;;;6.32;4.25;;;;;;;17.85;nan;-24314.16;5073109;28;20181;-81
2022/10/20 07:40:33;;;;;;;6.47;4.38;;;;;;;17.64;nan;-24308.56;5072117;28;20186;-77
2022/10/20 07:42:59;;;;;;;7.40;4.78;;;;;;;17.90;nan;-24315.53;5071765;28;20510;-77
2022/10/20 07:45:24;;;;;;;6.82;4.00;;;;;;;18.02;nan;-24318.91;5073113;28;20189;-78
2022/10/20 07:47:50;;;;;;;8.32;4.68;;;;;;;18.20;nan;-24323.91;5071644;28;20166;-76
2022/10/20 07:50:16;;;;;;;8.23;4.57;;;;;;;18.29;nan;-24326.28;5073070;28;20221;-77
2022/10/20 07:52:41;;;;;;;9.73;4.50;;;;;;;18.06;nan;-24320.16;5073520;28;20243;-78
2022/10/20 07:55:07;;;;;;;8.02;4.18;;;;;;;18.26;nan;-24325.44;5071446;28;20202;-77
2022/10/20 07:57:32;;;;;;;7.28;4.28;;;;;;;18.17;nan;-24323.06;5073096;28;20170;-77
2022/10/20 07:59:57;;;;;;;7.80;3.92;;;;;;;18.40;nan;-24329.47;5073093;28;20173;-78
2022/10/20 08:02:23;;;;;;;6.32;3.78;;;;;;;18.61;nan;-24335.06;5071511;28;20209;-76
2022/10/20 08:04:49;;;;;;;7.47;4.35;;;;;;;18.86;nan;-24342.16;5072441;28;20181;-77
2022/10/20 08:07:15;;;;;;;10.05;3.85;;;;;;;18.75;nan;-24338.97;5071821;28;20174;-77
2022/10/20 08:09:40;;;;;;;5.85;3.60;;;;;;;18.43;nan;-24330.19;5072216;28;20256;-77
2022/10/20 08:12:06;;;;;;;4.32;3.22;;;;;;;18.60;nan;-24334.91;5071665;28;20618;-77
2022/10/20 08:14:32;;;;;;;5.90;3.75;;;;;;;18.56;nan;-24333.81;5070946;28;20237;-77
2022/10/20 08:16:59;;;;;;;6.03;3.92;;;;;;;18.79;nan;-24340.22;5072795;28;20228;-77
2022/10/20 08:19:25;;;;;;;6.80;3.42;;;;;;;18.91;nan;-24343.41;5072319;28;20239;-76
2022/10/20 08:21:50;;;;;;;5.43;3.55;;;;;;;18.84;nan;-24341.47;5072518;28;20609;-76
2022/10/20 08:24:16;;;;;;;7.10;4.35;;;;;;;18.85;nan;-24341.75;5070738;28;20218;-76
2022/10/20 08:26:41;;;;;;;6.63;3.67;;;;;;;19.34;nan;-24355.38;5072398;28;20224;-76
2022/10/20 08:29:08;;;;;;;6.70;3.75;;;;;;;19.29;nan;-24353.84;5071018;28;20172;-77
2022/10/20 08:31:34;;;;;;;7.13;3.83;;;;;;;19.40;nan;-24357.06;5072684;28;20178;-76
2022/10/20 08:33:59;;;;;;;8.23;3.97;;;;;;;19.05;nan;-24347.19;5071159;28;20185;-76
2022/10/20 08:36:27;;;;;;;6.88;3.55;;;;;;;19.19;nan;-24351.22;5072480;28;20306;-75
2022/10/20 08:38:53;;;;;;;5.47;3.20;;;;;;;19.45;nan;-24358.16;5070926;28;20182;-77
2022/10/20 08:41:20;;;;;;;6.80;3.83;;;;;;;19.51;nan;-24359.97;5070999;28;20560;-77
2022/10/20 08:43:49;;;;;;;5.85;3.83;;;;;;;19.15;nan;-24349.94;5071874;28;20184;-77
2022/10/20 08:46:16;;;;;;;5.38;3.45;;;;;;;19.37;nan;-24356.22;5071214;28;20661;-75
2022/10/20 08:48:44;;;;;;;4.95;3.60;;;;;;;19.54;nan;-24360.81;5070892;28;20231;-78
2022/10/20 08:51:31;;;;;;;4.82;2.95;;;;;;;19.74;nan;-24366.22;5071867;28;20718;-76
2022/10/20 08:54:00;;;;;;;5.05;3.17;;;;;;;19.69;nan;-24364.97;5070505;28;20529;-77
2022/10/20 08:56:28;;;;;;;6.32;3.67;;;;;;;19.67;nan;-24364.28;5072272;28;20178;-78
2022/10/20 08:58:54;;;;;;;5.90;3.47;;;;;;;19.84;nan;-24369.16;5071111;28;20185;-76
2022/10/20 09:01:29;;;;;;;6.25;3.63;;;;;;;19.73;nan;-24365.94;5072193;28;20167;-77
2022/10/20 09:03:58;;;;;;;5.35;3.25;;;;;;;19.82;nan;-24368.47;5071923;28;20537;-76
2022/10/20 09:06:24;;;;;;;5.82;3.10;;;;;;;19.83;nan;-24368.72;5070302;28;20181;-77
2022/10/20 09:08:51;;;;;;;5.55;3.53;;;;;;;20.18;nan;-24378.47;5069753;28;20254;-78
2022/10/20 09:11:22;;;;;;;5.68;3.10;;;;;;;20.21;nan;-24379.16;5070305;28;20255;-78
2022/10/20 09:13:47;;;;;;;6.30;3.67;;;;;;;20.00;nan;-24373.47;5072235;28;20166;-78
2022/10/20 09:16:40;;;;;;;5.38;3.38;;;;;;;20.38;nan;-24383.88;5071749;28;20637;-77
2022/10/20 09:19:14;;;;;;;4.05;2.88;;;;;;;20.31;nan;-24381.78;5067604;28;20193;-77
2022/10/20 09:21:40;;;;;;;4.90;3.17;;;;;;;20.23;nan;-24379.84;5070705;28;20612;-76
2022/10/20 09:24:06;;;;;;;4.93;3.22;;;;;;;20.41;nan;-24384.56;5085020;28;20270;-77
2022/10/20 09:26:39;;;;;;;4.90;3.03;;;;;;;20.86;nan;-24396.91;5091779;28;20173;-77
2022/10/20 09:29:16;;;;;;;4.75;3.20;;;;;;;20.48;nan;-24386.66;5092145;28;20623;-77
2022/10/20 09:31:50;;;;;;;5.13;3.17;;;;;;;20.78;nan;-24394.84;5073113;28;20625;-77
2022/10/20 09:34:28;;;;;;;5.10;2.92;;;;;;;20.47;nan;-24386.25;5072984;28;20320;-77
2022/10/20 09:36:56;;;;;;;6.60;3.53;;;;;;;20.71;nan;-24393.03;5091364;28;20184;-76
2022/10/20 09:39:27;;;;;;;5.68;3.08;;;;;;;20.93;nan;-24398.88;5091400;28;20184;-76
2022/10/20 09:42:14;;;;;;;5.88;3.42;;;;;;;21.10;nan;-24403.72;5092035;28;20599;-78
2022/10/20 09:44:55;;;;;;;5.50;3.50;;;;;;;21.18;nan;-24405.81;5090607;28;20605;-76
2022/10/20 09:47:22;;;;;;;5.45;3.25;;;;;;;20.99;nan;-24400.53;5073192;28;20329;-78
2022/10/20 09:49:55;;;;;;;5.43;3.35;;;;;;;21.21;nan;-24406.50;5072787;28;20184;-78
2022/10/20 09:52:26;;;;;;;5.50;3.17;;;;;;;21.19;nan;-24406.06;5093084;28;20154;-78
2022/10/20 09:55:01;;;;;;;4.78;3.17;;;;;;;20.83;nan;-24396.22;5094651;28;20242;-77
2022/10/20 09:57:27;;;;;;;8.18;4.47;;;;;;;20.95;nan;-24399.41;5076713;28;20169;-76
2022/10/20 09:59:54;;;;;;;3.65;2.75;;;;;;;21.05;nan;-24402.34;5076638;28;20685;-77
2022/10/20 10:02:19;;;;;;;4.38;2.85;;;;;;;21.20;nan;-24406.22;5094914;28;20237;-77
2022/10/20 10:04:48;;;;;;;4.70;3.15;;;;;;;21.09;nan;-24403.31;5094825;28;20176;-78
2022/10/20 10:07:25;;;;;;;6.35;3.17;;;;;;;21.02;nan;-24401.34;5075904;28;20660;-69
2022/10/20 10:09:59;;;;;;;6.18;3.20;;;;;;;20.76;nan;-24394.16;5094866;28;20252;-70
2022/10/20 10:12:27;;;;;;;5.05;3.05;;;;;;;20.98;nan;-24400.38;5095042;28;20180;-69
2022/10/20 10:14:58;;;;;;;4.70;3.10;;;;;;;20.90;nan;-24398.16;5076364;28;20289;-69
2022/10/20 10:17:32;;;;;;;6.22;2.90;;;;;;;21.39;nan;-24411.63;5094256;28;20165;-69
2022/10/20 10:19:59;;;;;;;5.95;3.45;;;;;;;21.20;nan;-24406.34;5094866;28;20208;-69
2022/10/20 10:22:25;;;;;;;5.97;3.55;;;;;;;20.87;nan;-24397.34;5094163;28;20169;-69
2022/10/20 10:24:53;;;;;;;3.35;2.80;;;;;;;21.20;nan;-24406.34;5094528;28;20221;-68
2022/10/20 10:27:27;;;;;;;5.97;3.33;;;;;;;21.33;nan;-24409.81;5094304;28;20178;-69
2022/10/20 10:29:55;;;;;;;4.10;2.72;;;;;;;21.62;nan;-24417.84;5094352;28;20560;-69
2022/10/20 10:32:29;;;;;;;5.40;3.47;;;;;;;21.17;nan;-24405.53;5093612;28;20173;-69
2022/10/20 10:35:01;;;;;;;5.50;3.30;;;;;;;21.56;nan;-24416.19;5093255;28;20521;-69
2022/10/20 10:37:28;;;;;;;4.82;2.85;;;;;;;21.36;nan;-24410.66;5094670;28;20179;-69
2022/10/20 10:39:53;;;;;;;6.88;3.38;;;;;;;21.48;nan;-24413.97;5094590;28;20220;-70
2022/10/20 10:42:38;;;;;;;5.35;3.17;;;;;;;21.53;nan;-24415.50;5094388;28;20227;-69
2022/10/20 10:45:11;;;;;;;4.82;2.80;;;;;;;21.42;nan;-24412.31;5094818;28;20169;-69
2022/10/20 10:48:01;;;;;;;4.97;2.85;;;;;;;21.45;nan;-24413.28;5094039;28;20177;-69
2022/10/20 10:50:32;;;;;;;4.82;2.90;;;;;;;21.51;nan;-24414.81;5094568;28;20617;-69
2022/10/20 10:53:07;;;;;;;9.77;3.88;;;;;;;21.84;nan;-24423.81;5094489;28;20169;-69
2022/10/20 10:55:49;;;;;;;4.85;3.03;;;;;;;21.77;nan;-24421.88;5094531;28;20204;-69
2022/10/20 10:58:26;;;;;;;4.72;3.13;;;;;;;21.70;nan;-24420.06;5094562;28;20191;-68
2022/10/20 11:00:52;;;;;;;5.10;3.17;;;;;;;21.68;nan;-24419.53;5094294;28;20181;-69
2022/10/20 11:03:52;;;;;;;4.18;2.80;;;;;;;21.77;nan;-24422.00;5093207;28;20659;-71
2022/10/20 11:06:30;;;;;;;4.78;2.92;;;;;;;21.33;nan;-24409.81;5094083;28;20180;-71
2022/10/20 11:09:04;;;;;;;4.20;2.72;;;;;;;21.62;nan;-24417.72;5094402;28;20169;-70
2022/10/20 11:11:35;;;;;;;3.88;2.88;;;;;;;21.87;nan;-24424.78;5094174;28;20639;-69
2022/10/20 11:14:12;;;;;;;4.18;2.65;;;;;;;21.95;nan;-24427.00;5094417;28;20169;-69
2022/10/20 11:16:53;;;;;;;3.28;2.53;;;;;;;21.95;nan;-24427.00;5094326;28;20292;-69
2022/10/20 11:19:40;;;;;;;4.40;2.80;;;;;;;21.82;nan;-24423.25;5094150;28;20285;-69
2022/10/20 11:22:23;;;;;;;5.53;2.83;;;;;;;21.64;nan;-24418.41;5093663;28;20609;-69
2022/10/20 11:25:06;;;;;;;4.47;3.03;;;;;;;21.47;nan;-24413.69;5094587;28;20303;-70
2022/10/20 11:27:36;;;;;;;3.63;2.88;;;;;;;21.80;nan;-24422.72;5094097;28;20181;-70
2022/10/20 11:30:07;;;;;;;6.40;3.40;;;;;;;21.80;nan;-24422.72;5075639;28;20610;-70
2022/10/20 11:32:55;;;;;;;4.00;2.75;;;;;;;21.99;nan;-24428.13;5093367;28;20302;-70
2022/10/20 11:35:20;;;;;;;3.85;3.03;;;;;;;21.90;nan;-24425.63;5093612;28;20284;-69
2022/10/20 11:38:01;;;;;;;4.80;2.90;;;;;;;21.66;nan;-24418.81;5093302;28;20252;-69
2022/10/20 11:40:31;;;;;;;4.00;2.70;;;;;;;21.66;nan;-24418.81;5074989;28;20188;-69
2022/10/20 11:43:07;;;;;;;4.70;2.90;;;;;;;21.99;nan;-24428.13;5093347;28;20227;-68
2022/10/20 11:45:48;;;;;;;3.83;2.63;;;;;;;22.06;nan;-24429.78;5093253;28;20169;-68
2022/10/20 11:48:23;;;;;;;3.92;2.75;;;;;;;22.12;nan;-24431.44;5093339;28;20184;-72